Time,TemperatureF,DewpointF,PressureIn,WindDirection,WindDirectionDegrees,WindSpeedMPH,WindSpeedGustMPH,Humidity,HourlyPrecipIn,Conditions,Clouds,dailyrainin,SolarRadiationWatts/m^2,SoftwareType,DateUTC
2013-07-18 00:00:00,81.9,74.8,30.12,WSW,251,0.0,6.0,79,0.00,,---,0.00,0.00,VWS V14.01,2013-07-18 04:00:00,
2013-07-18 00:30:00,81.2,74.4,30.12,West,265,0.0,6.0,80,0.00,,---,0.00,0.00,VWS V14.01,2013-07-18 04:30:00,
2013-07-18 01:00:00,80.5,74.5,30.13,WSW,246,3.0,4.0,82,0.00,,---,0.00,0.00,VWS V14.01,2013-07-18 05:00:00,
2013-07-18 01:30:00,79.7,74.4,30.12,WSW,238,4.0,5.0,84,0.00,,---,0.00,0.00,VWS V14.01,2013-07-18 05:30:00,
2013-07-18 02:00:00,78.7,74.2,30.11,WSW,237,3.0,6.0,86,0.00,,---,0.00,0.00,VWS V14.01,2013-07-18 06:00:00,
2013-07-18 02:30:00,78.1,73.9,30.11,SW,229,1.0,6.0,87,0.00,,---,0.00,0.00,VWS V14.01,2013-07-18 06:30:00,
2013-07-18 03:00:00,77.6,73.8,30.11,SW,223,1.0,7.0,88,0.00,,---,0.00,0.00,VWS V14.01,2013-07-18 07:00:00,
2013-07-18 03:30:00,77.2,73.7,30.11,SW,224,0.0,5.0,89,0.00,,---,0.00,0.00,VWS V14.01,2013-07-18 07:30:00,
2013-07-18 04:00:00,76.8,73.7,30.11,SW,225,0.0,4.0,90,0.00,,---,0.00,0.00,VWS V14.01,2013-07-18 08:00:00,
2013-07-18 04:30:00,76.5,73.3,30.11,SW,223,0.0,4.0,90,0.00,,---,0.00,0.00,VWS V14.01,2013-07-18 08:30:00,
2013-07-18 05:00:00,76.3,73.2,30.10,SW,224,0.0,3.0,90,0.00,,---,0.00,0.00,VWS V14.01,2013-07-18 09:00:00,
2013-07-18 05:30:00,76.3,73.2,30.10,SW,224,0.0,2.0,90,0.00,,---,0.00,0.00,VWS V14.01,2013-07-18 09:30:00,
2013-07-18 06:00:00,75.9,73.1,30.10,SW,224,0.0,3.0,91,0.00,,---,0.00,0.00,VWS V14.01,2013-07-18 10:00:00,
2013-07-18 06:30:00,75.7,72.9,30.10,SW,224,0.0,2.0,91,0.00,,---,0.00,0.00,VWS V14.01,2013-07-18 10:30:00,
2013-07-18 07:00:00,75.4,72.6,30.13,SW,224,0.0,3.0,91,0.00,,---,0.00,7.00,VWS V14.01,2013-07-18 11:00:00,
2013-07-18 07:30:00,75.5,72.7,30.12,SW,224,1.0,3.0,91,0.00,,---,0.00,33.00,VWS V14.01,2013-07-18 11:30:00,
2013-07-18 08:00:00,76.5,73.3,30.13,SW,225,0.0,4.0,90,0.00,,---,0.00,93.00,VWS V14.01,2013-07-18 12:00:00,
2013-07-18 08:30:00,78.2,74.0,30.13,SW,229,0.0,6.0,87,0.00,,---,0.00,171.00,VWS V14.01,2013-07-18 12:30:00,
2013-07-18 09:00:00,80.0,74.7,30.12,West,270,6.0,8.0,84,0.00,,---,0.00,255.00,VWS V14.01,2013-07-18 13:00:00,
2013-07-18 09:30:00,81.6,75.2,30.13,West,259,5.0,11.0,81,0.00,,---,0.00,346.00,VWS V14.01,2013-07-18 13:30:00,
2013-07-18 09:56:00,84.7,75.9,30.12,SW,227,1.0,8.0,75,0.00,,---,0.00,575.00,VWS V14.01,2013-07-18 13:56:00,
2013-07-18 10:00:00,82.8,75.6,30.12,West,261,3.0,10.0,79,0.00,,---,0.00,367.00,VWS V14.01,2013-07-18 14:00:00,
2013-07-18 10:26:00,85.8,75.7,30.12,WNW,300,0.0,10.0,72,0.00,,---,0.00,652.00,VWS V14.01,2013-07-18 14:26:00,
2013-07-18 10:30:00,83.3,75.3,30.12,WNW,295,2.0,10.0,77,0.00,,---,0.00,415.00,VWS V14.01,2013-07-18 14:30:00,
2013-07-18 10:56:00,86.6,76.1,30.12,NW,316,4.0,7.0,71,0.00,,---,0.00,687.00,VWS V14.01,2013-07-18 14:56:00,
2013-07-18 11:00:00,84.7,75.9,30.12,SW,227,1.0,8.0,75,0.00,,---,0.00,575.00,VWS V14.01,2013-07-18 15:00:00,
2013-07-18 11:26:00,87.7,76.3,30.11,WSW,258,1.0,8.0,69,0.00,,---,0.00,696.00,VWS V14.01,2013-07-18 15:26:00,
2013-07-18 11:30:00,85.8,75.7,30.12,WNW,300,0.0,10.0,72,0.00,,---,0.00,652.00,VWS V14.01,2013-07-18 15:30:00,
2013-07-18 11:56:00,87.9,75.6,30.11,NW,304,0.0,7.0,67,0.00,,---,0.00,200.00,VWS V14.01,2013-07-18 15:56:00,
2013-07-18 12:00:00,86.6,76.1,30.12,NW,316,4.0,7.0,71,0.00,,---,0.00,687.00,VWS V14.01,2013-07-18 16:00:00,
2013-07-18 12:26:00,85.5,77.1,30.10,NNW,341,0.0,6.0,76,0.04,,---,0.04,40.00,VWS V14.01,2013-07-18 16:26:00,
2013-07-18 12:30:00,87.7,76.3,30.11,WSW,258,1.0,8.0,69,0.00,,---,0.00,696.00,VWS V14.01,2013-07-18 16:30:00,
2013-07-18 12:56:00,71.5,67.1,30.11,South,179,10.0,24.0,86,0.80,,---,0.80,47.00,VWS V14.01,2013-07-18 16:56:00,
2013-07-18 13:00:00,87.9,75.6,30.11,NW,304,0.0,7.0,67,0.00,,---,0.00,200.00,VWS V14.01,2013-07-18 17:00:00,
2013-07-18 13:26:00,72.2,68.4,30.11,West,263,7.0,17.0,88,1.01,,---,1.01,37.00,VWS V14.01,2013-07-18 17:26:00,
2013-07-18 13:30:00,85.5,77.1,30.10,NNW,341,0.0,6.0,76,0.04,,---,0.04,40.00,VWS V14.01,2013-07-18 17:30:00,
2013-07-18 13:56:00,71.6,68.2,30.09,South,169,2.0,22.0,89,1.74,,---,1.78,54.00,VWS V14.01,2013-07-18 17:56:00,
2013-07-18 14:00:00,71.6,68.2,30.09,South,169,2.0,22.0,89,1.74,,---,1.78,54.00,VWS V14.01,2013-07-18 18:00:00,
2013-07-18 14:26:00,72.3,70.5,30.09,South,179,0.0,7.0,94,1.00,,---,1.80,104.00,VWS V14.01,2013-07-18 18:26:00,
2013-07-18 14:30:00,72.3,70.5,30.09,South,179,0.0,7.0,94,1.00,,---,1.80,104.00,VWS V14.01,2013-07-18 18:30:00,
2013-07-18 14:56:00,72.7,69.3,30.08,ESE,114,5.0,27.0,89,1.35,,---,2.36,109.00,VWS V14.01,2013-07-18 18:56:00,
2013-07-18 15:00:00,72.7,69.3,30.08,ESE,114,5.0,27.0,89,1.35,,---,2.36,109.00,VWS V14.01,2013-07-18 19:00:00,
2013-07-18 15:26:00,74.2,72.4,30.08,SSE,150,0.0,11.0,94,0.58,,---,2.36,559.00,VWS V14.01,2013-07-18 19:26:00,
2013-07-18 15:30:00,74.2,72.4,30.08,SSE,150,0.0,11.0,94,0.58,,---,2.36,559.00,VWS V14.01,2013-07-18 19:30:00,
2013-07-18 15:56:00,78.1,75.9,30.04,South,178,0.0,4.0,93,0.56,,---,2.36,650.00,VWS V14.01,2013-07-18 19:56:00,
2013-07-18 16:00:00,78.1,75.9,30.04,South,178,0.0,4.0,93,0.56,,---,2.36,650.00,VWS V14.01,2013-07-18 20:00:00,
2013-07-18 16:26:00,80.3,76.4,30.02,South,180,0.0,4.0,88,0.00,,---,2.36,350.00,VWS V14.01,2013-07-18 20:26:00,
2013-07-18 16:30:00,80.3,76.4,30.02,South,180,0.0,4.0,88,0.00,,---,2.36,350.00,VWS V14.01,2013-07-18 20:30:00,
2013-07-18 16:56:00,83.2,76.0,30.02,South,179,0.0,5.0,79,0.00,,---,2.36,290.00,VWS V14.01,2013-07-18 20:56:00,
2013-07-18 17:00:00,83.2,76.0,30.02,South,179,0.0,5.0,79,0.00,,---,2.36,290.00,VWS V14.01,2013-07-18 21:00:00,
2013-07-18 17:26:00,86.1,78.4,30.02,SSE,157,8.0,8.0,78,0.00,,---,2.36,450.00,VWS V14.01,2013-07-18 21:26:00,
2013-07-18 17:30:00,86.1,78.4,30.02,SSE,157,8.0,8.0,78,0.00,,---,2.36,450.00,VWS V14.01,2013-07-18 21:30:00,
2013-07-18 17:56:00,86.2,76.1,30.02,SSE,150,6.0,12.0,72,0.00,,---,2.36,371.00,VWS V14.01,2013-07-18 21:56:00,
2013-07-18 18:00:00,86.2,76.1,30.02,SSE,150,6.0,12.0,72,0.00,,---,2.36,371.00,VWS V14.01,2013-07-18 22:00:00,
2013-07-18 18:26:00,85.4,76.6,30.01,SSE,155,4.0,7.0,75,0.00,,---,2.36,107.00,VWS V14.01,2013-07-18 22:26:00,
2013-07-18 18:30:00,85.4,76.6,30.01,SSE,155,4.0,7.0,75,0.00,,---,2.36,107.00,VWS V14.01,2013-07-18 22:30:00,
2013-07-18 18:56:00,85.7,76.9,30.01,South,181,0.0,7.0,75,0.00,,---,2.36,209.00,VWS V14.01,2013-07-18 22:56:00,
2013-07-18 19:00:00,85.7,76.9,30.01,South,181,0.0,7.0,75,0.00,,---,2.36,209.00,VWS V14.01,2013-07-18 23:00:00,
2013-07-18 19:26:00,85.9,76.2,30.00,SSW,209,0.0,8.0,73,0.00,,---,2.36,84.00,VWS V14.01,2013-07-18 23:26:00,
2013-07-18 19:30:00,85.9,76.2,30.00,SSW,209,0.0,8.0,73,0.00,,---,2.36,84.00,VWS V14.01,2013-07-18 23:30:00,
2013-07-18 19:56:00,85.1,74.2,29.99,WSW,257,3.0,10.0,70,0.00,,---,2.36,46.00,VWS V14.01,2013-07-18 23:56:00,
2013-07-18 20:00:00,85.1,74.2,29.99,WSW,257,3.0,10.0,70,0.00,,---,2.36,46.00,VWS V14.01,2013-07-19 00:00:00,
2013-07-18 20:26:00,83.7,73.3,29.98,WSW,239,0.0,5.0,71,0.00,,---,2.36,12.00,VWS V14.01,2013-07-19 00:26:00,
2013-07-18 20:30:00,83.7,73.3,29.98,WSW,239,0.0,5.0,71,0.00,,---,2.36,12.00,VWS V14.01,2013-07-19 00:30:00,
2013-07-18 20:56:00,82.1,73.8,29.98,WSW,239,0.0,1.0,76,0.00,,---,2.36,0.00,VWS V14.01,2013-07-19 00:56:00,
2013-07-18 21:00:00,82.1,73.8,29.98,WSW,239,0.0,1.0,76,0.00,,---,2.36,0.00,VWS V14.01,2013-07-19 01:00:00,
2013-07-18 21:26:00,79.3,74.1,29.99,WSW,239,0.0,1.0,84,0.00,,---,2.36,0.00,VWS V14.01,2013-07-19 01:26:00,
2013-07-18 21:30:00,79.3,74.1,29.99,WSW,239,0.0,1.0,84,0.00,,---,2.36,0.00,VWS V14.01,2013-07-19 01:30:00,
2013-07-18 21:56:00,78.0,73.8,30.00,WSW,239,0.0,0.0,87,0.00,,---,2.36,0.00,VWS V14.01,2013-07-19 01:56:00,
2013-07-18 22:00:00,78.0,73.8,30.00,WSW,239,0.0,0.0,87,0.00,,---,2.36,0.00,VWS V14.01,2013-07-19 02:00:00,
2013-07-18 22:26:00,77.1,73.9,29.98,WSW,239,0.0,1.0,90,0.00,,---,2.36,0.00,VWS V14.01,2013-07-19 02:26:00,
2013-07-18 22:30:00,77.1,73.9,29.98,WSW,239,0.0,1.0,90,0.00,,---,2.36,0.00,VWS V14.01,2013-07-19 02:30:00,
2013-07-18 22:56:00,76.8,73.3,29.98,WSW,239,0.0,1.0,89,0.00,,---,2.36,0.00,VWS V14.01,2013-07-19 02:56:00,
2013-07-18 23:00:00,76.8,73.3,29.98,WSW,239,0.0,1.0,89,0.00,,---,2.36,0.00,VWS V14.01,2013-07-19 03:00:00,
2013-07-18 23:26:00,76.6,72.8,29.98,WSW,239,0.0,1.0,88,0.00,,---,2.36,0.00,VWS V14.01,2013-07-19 03:26:00,
2013-07-18 23:30:00,76.6,72.8,29.98,WSW,239,0.0,1.0,88,0.00,,---,2.36,0.00,VWS V14.01,2013-07-19 03:30:00,
2013-07-18 23:56:00,76.8,72.3,29.98,WSW,239,0.0,2.0,86,0.00,,---,0.00,0.00,VWS V14.01,2013-07-19 03:56:00,